createdAt,value
2022-12-27T00:02:11.866Z,4.60
2022-12-27T00:04:38.931Z,4.50
2022-12-27T00:07:05.669Z,4.60
2022-12-27T00:09:32.434Z,4.50
2022-12-27T00:12:00.122Z,4.50
2022-12-27T00:14:27.089Z,4.50
2022-12-27T00:16:53.699Z,4.50
2022-12-27T00:19:20.341Z,4.50
2022-12-27T00:21:46.949Z,4.60
2022-12-27T00:24:13.526Z,4.50
2022-12-27T00:26:40.876Z,4.50
2022-12-27T00:29:07.875Z,4.50
2022-12-27T00:31:34.712Z,4.50
2022-12-27T00:34:03.762Z,4.50
2022-12-27T00:36:31.649Z,4.50
2022-12-27T00:38:59.474Z,4.50
2022-12-27T00:41:27.000Z,4.50
2022-12-27T00:43:53.614Z,4.50
2022-12-27T00:46:20.211Z,4.50
2022-12-27T00:48:47.114Z,4.50
2022-12-27T00:51:17.578Z,4.40
2022-12-27T00:53:44.705Z,4.50
2022-12-27T00:56:17.339Z,4.40
2022-12-27T00:58:44.001Z,4.40
2022-12-27T01:01:20.299Z,4.40
2022-12-27T01:03:47.313Z,4.40
2022-12-27T01:06:17.533Z,4.40
2022-12-27T01:08:45.283Z,4.40
2022-12-27T01:11:12.976Z,4.50
2022-12-27T01:13:40.373Z,4.50
2022-12-27T01:16:16.445Z,4.40
2022-12-27T01:18:44.605Z,4.40
2022-12-27T01:21:13.199Z,4.40
2022-12-27T01:23:40.533Z,4.40
2022-12-27T01:26:10.878Z,4.50
2022-12-27T01:28:37.789Z,4.40
2022-12-27T01:31:09.511Z,4.40
2022-12-27T01:33:36.121Z,4.50
2022-12-27T01:36:11.183Z,4.50
2022-12-27T01:38:37.912Z,4.40
2022-12-27T01:41:24.567Z,4.40
2022-12-27T01:43:51.187Z,4.40
2022-12-27T01:46:18.390Z,4.40
2022-12-27T01:48:45.661Z,4.30
2022-12-27T01:51:12.796Z,4.40
2022-12-27T01:53:46.415Z,4.40
2022-12-27T01:56:21.939Z,4.40
2022-12-27T01:59:02.410Z,4.40
2022-12-27T02:01:33.929Z,4.40
2022-12-27T02:04:19.019Z,4.40
2022-12-27T02:06:47.819Z,4.40
2022-12-27T02:09:40.159Z,4.40
2022-12-27T02:12:08.909Z,4.40
2022-12-27T02:14:44.680Z,4.40
2022-12-27T02:17:24.709Z,4.40
2022-12-27T02:20:09.847Z,4.40
2022-12-27T02:23:20.006Z,4.40
2022-12-27T02:26:05.287Z,4.40
2022-12-27T02:29:09.160Z,4.40
2022-12-27T02:31:38.668Z,4.40
2022-12-27T02:34:18.270Z,4.40
2022-12-27T02:36:46.472Z,4.40
2022-12-27T02:39:16.038Z,4.40
2022-12-27T02:42:02.033Z,4.30
2022-12-27T02:44:47.407Z,4.30
2022-12-27T02:47:39.403Z,4.30
2022-12-27T02:50:27.401Z,4.30
2022-12-27T02:53:16.486Z,4.40
2022-12-27T02:56:13.857Z,4.40
2022-12-27T02:58:40.405Z,4.40
2022-12-27T03:01:46.148Z,4.40
2022-12-27T03:04:28.355Z,4.40
2022-12-27T03:07:24.813Z,4.40
2022-12-27T03:10:27.830Z,4.40
2022-12-27T03:13:13.147Z,4.40
2022-12-27T03:16:08.618Z,4.40
2022-12-27T03:18:44.150Z,4.40
2022-12-27T03:21:34.891Z,4.40
2022-12-27T03:24:21.237Z,4.40
2022-12-27T03:26:50.431Z,4.40
2022-12-27T03:29:38.191Z,4.40
2022-12-27T03:32:27.572Z,4.40
2022-12-27T03:35:03.601Z,4.40
2022-12-27T03:37:56.220Z,4.40
2022-12-27T03:40:41.371Z,4.50
2022-12-27T03:43:14.840Z,4.40
2022-12-27T03:46:35.649Z,4.40
2022-12-27T03:49:21.657Z,4.50
2022-12-27T03:52:27.606Z,4.50
2022-12-27T03:54:55.602Z,4.50
2022-12-27T03:57:24.485Z,4.50
2022-12-27T03:59:51.298Z,4.50
2022-12-27T04:02:18.365Z,4.50
2022-12-27T04:04:45.301Z,4.50
2022-12-27T04:07:15.372Z,4.60
2022-12-27T04:10:01.529Z,4.60
2022-12-27T04:12:46.882Z,4.60
2022-12-27T04:15:32.468Z,4.60
2022-12-27T04:18:17.805Z,4.60
2022-12-27T04:21:03.240Z,4.60
2022-12-27T04:23:48.449Z,4.70
2022-12-27T04:26:33.845Z,4.70
2022-12-27T04:29:19.269Z,4.70
2022-12-27T04:32:04.613Z,4.70
2022-12-27T04:34:42.267Z,4.70
2022-12-27T04:37:11.259Z,4.70
2022-12-27T04:39:37.925Z,4.70
2022-12-27T04:42:23.622Z,4.70
2022-12-27T04:45:14.912Z,4.70
2022-12-27T04:48:14.370Z,4.70
2022-12-27T04:50:59.718Z,4.70
2022-12-27T04:53:45.192Z,4.60
2022-12-27T04:56:11.788Z,4.60
2022-12-27T04:58:58.335Z,4.60
2022-12-27T05:01:43.480Z,4.60
2022-12-27T05:04:10.238Z,4.60
2022-12-27T05:06:36.851Z,4.50
2022-12-27T05:09:23.361Z,4.50
2022-12-27T05:12:08.545Z,4.50
2022-12-27T05:14:35.209Z,4.50
2022-12-27T05:17:01.769Z,4.50
2022-12-27T05:19:28.863Z,4.50
2022-12-27T05:22:13.942Z,4.40
2022-12-27T05:24:59.249Z,4.40
2022-12-27T05:27:25.818Z,4.40
2022-12-27T05:29:52.405Z,4.40
2022-12-27T05:32:18.978Z,4.40
2022-12-27T05:34:45.558Z,4.40
2022-12-27T05:37:12.188Z,4.40
2022-12-27T05:39:38.775Z,4.40
2022-12-27T05:42:05.551Z,4.40
2022-12-27T05:44:32.148Z,4.40
2022-12-27T05:46:58.768Z,4.40
2022-12-27T05:49:25.401Z,4.40
2022-12-27T05:51:52.002Z,4.40
2022-12-27T05:54:18.658Z,4.40
2022-12-27T05:56:45.229Z,4.40
2022-12-27T05:59:11.809Z,4.40
2022-12-27T06:01:38.454Z,4.40
2022-12-27T06:04:05.404Z,4.40
2022-12-27T06:06:33.515Z,4.40
2022-12-27T06:09:00.107Z,4.40
2022-12-27T06:11:26.724Z,4.40
2022-12-27T06:13:54.175Z,4.40
2022-12-27T06:18:46.861Z,4.30
2022-12-27T06:21:16.186Z,4.40
2022-12-27T06:23:47.014Z,4.30
2022-12-27T06:26:18.911Z,4.30
2022-12-27T06:28:45.573Z,4.30
2022-12-27T06:31:12.622Z,4.30
2022-12-27T06:33:39.243Z,4.30
2022-12-27T06:36:10.983Z,4.20
2022-12-27T06:38:38.218Z,4.20
2022-12-27T06:41:07.694Z,4.20
2022-12-27T06:43:34.885Z,4.20
2022-12-27T06:46:03.996Z,4.20
2022-12-27T06:48:30.984Z,4.20
2022-12-27T06:50:57.578Z,4.20
2022-12-27T06:53:24.366Z,4.20
2022-12-27T06:55:50.991Z,4.20
2022-12-27T06:58:17.617Z,4.20
2022-12-27T07:00:44.211Z,4.20
2022-12-27T07:03:10.869Z,4.20
2022-12-27T07:05:38.205Z,4.30
2022-12-27T07:08:05.318Z,4.30
2022-12-27T07:10:39.176Z,4.20
2022-12-27T07:13:05.773Z,4.20
2022-12-27T07:15:32.449Z,4.20
2022-12-27T07:17:59.781Z,4.30
2022-12-27T07:20:26.379Z,4.30
2022-12-27T07:22:52.962Z,4.30
2022-12-27T07:25:19.503Z,4.20
2022-12-27T07:27:46.088Z,4.30
2022-12-27T07:30:12.857Z,4.30
2022-12-27T07:32:39.473Z,4.30
2022-12-27T07:35:06.440Z,4.30
2022-12-27T07:37:33.033Z,4.30
2022-12-27T07:39:59.634Z,4.30
2022-12-27T07:42:26.290Z,4.30
2022-12-27T07:44:52.926Z,4.30
2022-12-27T07:47:19.529Z,4.30
2022-12-27T07:49:46.088Z,4.30
2022-12-27T07:52:12.729Z,4.30
2022-12-27T07:54:39.309Z,4.40
2022-12-27T07:57:05.891Z,4.30
2022-12-27T07:59:32.766Z,4.30
2022-12-27T08:02:05.645Z,4.40
2022-12-27T08:04:35.028Z,4.30
2022-12-27T08:07:08.248Z,4.40
2022-12-27T08:09:38.675Z,4.40
2022-12-27T08:12:06.280Z,4.40
2022-12-27T08:14:32.890Z,4.40
2022-12-27T08:17:05.950Z,4.40
2022-12-27T08:19:32.682Z,4.50
2022-12-27T08:21:59.273Z,4.50
2022-12-27T08:24:25.897Z,4.50
2022-12-27T08:26:52.627Z,4.50
2022-12-27T08:29:19.190Z,4.50
2022-12-27T08:31:45.797Z,4.50
2022-12-27T08:34:12.412Z,4.50
2022-12-27T08:36:55.109Z,4.60
2022-12-27T08:39:22.367Z,4.60
2022-12-27T08:41:48.980Z,4.70
2022-12-27T08:44:15.550Z,4.60
2022-12-27T08:46:42.214Z,4.70
2022-12-27T08:49:08.894Z,4.70
2022-12-27T08:51:40.879Z,4.60
2022-12-27T08:54:08.414Z,4.70
2022-12-27T08:56:35.022Z,4.70
2022-12-27T08:59:01.782Z,4.80
2022-12-27T09:01:28.971Z,4.80
2022-12-27T09:03:55.704Z,4.90
2022-12-27T09:06:24.390Z,5.00
2022-12-27T09:08:51.901Z,5.00
2022-12-27T09:11:21.242Z,5.00
2022-12-27T09:13:48.092Z,5.10
2022-12-27T09:16:20.041Z,5.10
2022-12-27T09:18:49.829Z,5.10
2022-12-27T09:21:18.100Z,5.10
2022-12-27T09:23:45.243Z,5.10
2022-12-27T09:26:17.843Z,5.10
2022-12-27T09:28:45.192Z,5.10
2022-12-27T09:31:13.034Z,5.10
2022-12-27T09:33:40.394Z,5.20
2022-12-27T09:36:08.837Z,5.10
2022-12-27T09:38:36.407Z,5.20
2022-12-27T09:41:19.313Z,5.30
2022-12-27T09:44:20.419Z,5.30
2022-12-27T09:47:14.151Z,5.30
2022-12-27T09:49:45.380Z,5.40
2022-12-27T09:52:34.068Z,5.40
2022-12-27T09:55:21.804Z,5.50
2022-12-27T09:57:50.676Z,5.60
2022-12-27T10:00:31.021Z,5.60
2022-12-27T10:03:05.354Z,5.60
2022-12-27T10:05:36.344Z,5.70
2022-12-27T10:08:39.307Z,5.70
2022-12-27T10:11:37.085Z,5.70
2022-12-27T10:14:31.783Z,5.70
2022-12-27T10:17:36.131Z,5.80
2022-12-27T10:20:34.308Z,5.90
2022-12-27T10:23:06.672Z,5.90
2022-12-27T10:25:35.371Z,5.90
2022-12-27T10:28:19.175Z,5.90
2022-12-27T10:30:45.923Z,5.90
2022-12-27T10:33:21.791Z,6.00
2022-12-27T10:35:48.798Z,6.00
2022-12-27T10:38:15.391Z,6.10
2022-12-27T10:41:11.998Z,6.10
2022-12-27T10:43:42.993Z,6.10
2022-12-27T10:46:19.163Z,6.10
2022-12-27T10:51:45.335Z,6.20
2022-12-27T10:54:19.340Z,6.30
2022-12-27T10:56:46.006Z,6.40
2022-12-27T10:59:19.750Z,6.50
2022-12-27T11:01:49.742Z,6.50
2022-12-27T11:04:24.674Z,6.50
2022-12-27T11:07:13.150Z,6.60
2022-12-27T11:09:48.403Z,6.60
2022-12-27T11:12:25.271Z,6.70
2022-12-27T11:14:54.611Z,6.70
2022-12-27T11:17:46.155Z,6.70
2022-12-27T11:20:20.613Z,6.70
2022-12-27T11:23:10.169Z,6.80
2022-12-27T11:25:53.303Z,6.90
2022-12-27T11:28:33.869Z,6.90
2022-12-27T11:31:08.301Z,7.00
2022-12-27T11:33:49.823Z,7.10
2022-12-27T11:36:35.618Z,7.10
2022-12-27T11:39:02.501Z,7.30
2022-12-27T11:41:42.906Z,7.30
2022-12-27T11:44:28.888Z,7.30
2022-12-27T11:47:01.575Z,7.20
2022-12-27T11:49:58.357Z,7.20
2022-12-27T11:52:51.719Z,7.20
2022-12-27T11:56:04.952Z,7.20
2022-12-27T11:58:40.080Z,7.20
2022-12-27T12:01:34.367Z,7.20
2022-12-27T12:04:06.827Z,7.20
2022-12-27T12:07:10.446Z,7.20
2022-12-27T12:10:05.973Z,7.20
2022-12-27T12:13:09.644Z,7.30
2022-12-27T12:16:03.772Z,7.20
2022-12-27T12:18:47.525Z,7.20
2022-12-27T12:21:30.021Z,7.20
2022-12-27T12:24:11.470Z,7.30
2022-12-27T12:26:55.991Z,7.30
2022-12-27T12:29:57.905Z,7.30
2022-12-27T12:32:47.894Z,7.40
2022-12-27T12:35:18.953Z,7.30
2022-12-27T12:38:20.067Z,7.30
2022-12-27T12:41:16.421Z,7.40
2022-12-27T12:44:30.427Z,7.40
2022-12-27T12:47:09.452Z,7.40
2022-12-27T12:49:51.102Z,7.30
2022-12-27T12:52:35.437Z,7.30
2022-12-27T12:55:55.160Z,7.40
2022-12-27T12:58:37.435Z,7.40
2022-12-27T13:01:25.418Z,7.40
2022-12-27T13:04:19.789Z,7.40
2022-12-27T13:07:06.737Z,7.40
2022-12-27T13:10:02.210Z,7.40
2022-12-27T13:12:37.721Z,7.40
2022-12-27T13:15:36.860Z,7.40
2022-12-27T13:18:35.499Z,7.40
2022-12-27T13:21:16.802Z,7.40
2022-12-27T13:24:07.305Z,7.40
2022-12-27T13:27:10.571Z,7.40
2022-12-27T13:30:12.424Z,7.40
2022-12-27T13:32:46.494Z,7.40
2022-12-27T13:35:28.277Z,7.50
2022-12-27T13:38:20.730Z,7.50
2022-12-27T13:41:28.075Z,7.40
2022-12-27T13:44:28.782Z,7.40
2022-12-27T13:47:15.476Z,7.40
2022-12-27T13:49:52.214Z,7.40
2022-12-27T13:52:27.751Z,7.40
2022-12-27T13:55:16.622Z,7.40
2022-12-27T13:58:07.939Z,7.40
2022-12-27T14:01:18.530Z,7.40
2022-12-27T14:04:06.092Z,7.40
2022-12-27T14:06:32.652Z,7.40
2022-12-27T14:09:26.295Z,7.40
2022-12-27T14:12:07.970Z,7.40
2022-12-27T14:14:37.943Z,7.40
2022-12-27T14:17:46.907Z,7.40
2022-12-27T14:20:16.257Z,7.40
2022-12-27T14:22:57.775Z,7.40
2022-12-27T14:25:54.973Z,7.40
2022-12-27T14:28:59.897Z,7.40
2022-12-27T14:31:29.756Z,7.30
2022-12-27T14:34:09.427Z,7.30
2022-12-27T14:37:09.880Z,7.30
2022-12-27T14:39:58.642Z,7.30
2022-12-27T14:42:59.027Z,7.30
2022-12-27T14:45:57.608Z,7.30
2022-12-27T14:48:39.887Z,7.30
2022-12-27T14:51:58.766Z,7.30
2022-12-27T14:54:39.485Z,7.30
2022-12-27T14:57:39.311Z,7.30
2022-12-27T15:00:18.203Z,7.30
2022-12-27T15:03:02.973Z,7.30
2022-12-27T15:05:48.651Z,7.30
2022-12-27T15:08:42.611Z,7.30
2022-12-27T15:11:28.013Z,7.30
2022-12-27T15:14:14.965Z,7.30
2022-12-27T15:16:51.498Z,7.30
2022-12-27T15:19:36.995Z,7.30
2022-12-27T15:22:20.943Z,7.30
2022-12-27T15:25:02.368Z,7.40
2022-12-27T15:27:39.786Z,7.30
2022-12-27T15:30:22.073Z,7.30
2022-12-27T15:33:16.423Z,7.30
2022-12-27T15:35:52.353Z,7.30
2022-12-27T15:38:44.480Z,7.30
2022-12-27T15:41:34.020Z,7.30
2022-12-27T15:44:51.523Z,7.20
2022-12-27T15:48:01.533Z,7.30
2022-12-27T15:50:54.131Z,7.20
2022-12-27T15:53:39.625Z,7.20
2022-12-27T15:56:34.995Z,7.20
2022-12-27T15:59:41.272Z,7.20
2022-12-27T16:02:17.177Z,7.20
2022-12-27T16:04:53.621Z,7.20
2022-12-27T16:07:41.681Z,7.10
2022-12-27T16:10:32.639Z,7.20
2022-12-27T16:13:11.127Z,7.20
2022-12-27T16:15:50.701Z,7.20
2022-12-27T16:18:17.803Z,7.20
2022-12-27T16:21:06.606Z,7.10
2022-12-27T16:23:46.447Z,7.10
2022-12-27T16:26:16.143Z,7.10
2022-12-27T16:29:01.368Z,7.10
2022-12-27T16:31:30.560Z,7.00
2022-12-27T16:33:59.773Z,7.00
2022-12-27T16:36:30.746Z,7.10
2022-12-27T16:39:24.806Z,7.00
2022-12-27T16:41:54.693Z,7.00
2022-12-27T16:44:24.444Z,7.00
2022-12-27T16:47:19.895Z,7.00
2022-12-27T16:50:14.444Z,7.00
2022-12-27T16:52:59.099Z,7.00
2022-12-27T16:55:55.283Z,7.00
2022-12-27T16:58:27.043Z,7.00
2022-12-27T17:00:55.590Z,6.90
2022-12-27T17:03:22.189Z,7.00
2022-12-27T17:06:30.061Z,7.00
2022-12-27T17:08:37.097Z,7.00
2022-12-27T17:11:30.197Z,6.90
2022-12-27T17:14:18.474Z,6.90
2022-12-27T17:16:51.631Z,6.80
2022-12-27T17:19:27.132Z,6.90
2022-12-27T17:21:59.382Z,6.90
2022-12-27T17:24:26.191Z,6.90
2022-12-27T17:27:18.768Z,6.90
2022-12-27T17:29:54.463Z,6.90
2022-12-27T17:32:40.103Z,6.90
2022-12-27T17:35:28.736Z,6.90
2022-12-27T17:37:58.436Z,6.80
2022-12-27T17:40:46.706Z,6.90
2022-12-27T17:43:53.918Z,6.90
2022-12-27T17:46:41.677Z,6.80
2022-12-27T17:49:11.479Z,6.80
2022-12-27T17:52:01.890Z,6.80
2022-12-27T17:54:48.270Z,6.80
2022-12-27T17:57:36.721Z,6.80
2022-12-27T18:00:06.296Z,6.80
2022-12-27T18:02:37.375Z,6.80
2022-12-27T18:05:13.426Z,6.80
2022-12-27T18:07:42.326Z,6.70
2022-12-27T18:10:24.837Z,6.70
2022-12-27T18:12:54.394Z,6.70
2022-12-27T18:15:26.285Z,6.70
2022-12-27T18:18:06.957Z,6.60
2022-12-27T18:20:37.804Z,6.60
2022-12-27T18:23:04.334Z,6.60
2022-12-27T18:26:12.387Z,6.60
2022-12-27T18:28:41.161Z,6.60
2022-12-27T18:31:26.422Z,6.60
2022-12-27T18:33:59.869Z,6.60
2022-12-27T18:36:29.854Z,6.50
2022-12-27T18:39:04.664Z,6.50
2022-12-27T18:41:43.323Z,6.60
2022-12-27T18:44:21.473Z,6.60
2022-12-27T18:46:57.675Z,6.60
2022-12-27T18:49:26.975Z,6.60
2022-12-27T18:51:54.933Z,6.50
2022-12-27T18:54:32.520Z,6.40
2022-12-27T18:57:02.090Z,6.40
2022-12-27T18:59:34.327Z,6.40
2022-12-27T19:02:03.433Z,6.40
2022-12-27T19:04:32.314Z,6.40
2022-12-27T19:07:11.886Z,6.40
2022-12-27T19:09:50.478Z,6.40
2022-12-27T19:12:38.477Z,6.40
2022-12-27T19:15:37.483Z,6.40
2022-12-27T19:18:06.599Z,6.50
2022-12-27T19:20:37.156Z,6.40
2022-12-27T19:23:52.909Z,6.40
2022-12-27T19:26:31.952Z,6.40
2022-12-27T19:29:14.396Z,6.30
2022-12-27T19:31:44.340Z,6.20
2022-12-27T19:34:16.307Z,6.20
2022-12-27T19:36:44.762Z,6.20
2022-12-27T19:39:21.708Z,6.20
2022-12-27T19:41:49.170Z,6.20
2022-12-27T19:44:16.304Z,6.30
2022-12-27T19:46:43.057Z,6.30
2022-12-27T19:51:57.353Z,6.10
2022-12-27T19:54:27.269Z,6.10
2022-12-27T19:56:55.043Z,6.10
2022-12-27T19:59:25.263Z,6.10
2022-12-27T20:01:52.704Z,6.10
2022-12-27T20:04:19.806Z,6.10
2022-12-27T20:06:48.643Z,5.90
2022-12-27T20:09:18.099Z,6.00
2022-12-27T20:11:45.569Z,5.80
2022-12-27T20:14:14.363Z,5.90
2022-12-27T20:16:41.130Z,6.00
2022-12-27T20:19:08.938Z,6.00
2022-12-27T20:21:35.552Z,6.00
2022-12-27T20:24:02.135Z,6.00
2022-12-27T20:26:29.339Z,6.00
2022-12-27T20:28:55.977Z,6.10
2022-12-27T20:31:22.721Z,6.00
2022-12-27T20:33:54.329Z,6.00
2022-12-27T20:36:21.932Z,5.90
2022-12-27T20:38:48.597Z,6.00
2022-12-27T20:41:17.715Z,5.90
2022-12-27T20:43:44.697Z,5.90
2022-12-27T20:46:16.819Z,5.90
2022-12-27T20:48:46.448Z,6.00
2022-12-27T20:51:18.169Z,6.00
2022-12-27T20:53:46.769Z,6.00
2022-12-27T20:56:13.976Z,6.00
2022-12-27T20:58:40.570Z,6.00
2022-12-27T21:01:10.019Z,6.00
2022-12-27T21:03:37.899Z,6.10
2022-12-27T21:06:12.502Z,6.00
2022-12-27T21:08:46.502Z,6.00
2022-12-27T21:11:26.870Z,6.10
2022-12-27T21:13:53.874Z,6.00
2022-12-27T21:16:25.985Z,6.00
2022-12-27T21:18:53.206Z,6.00
2022-12-27T21:21:26.755Z,6.10
2022-12-27T21:23:55.111Z,6.00
2022-12-27T21:26:25.157Z,6.10
2022-12-27T21:28:52.402Z,6.10
2022-12-27T21:31:19.845Z,6.20
2022-12-27T21:33:47.436Z,6.10
2022-12-27T21:36:17.195Z,6.10
2022-12-27T21:38:44.458Z,6.10
2022-12-27T21:41:19.812Z,6.20
2022-12-27T21:43:47.729Z,6.20
2022-12-27T21:46:20.253Z,6.20
2022-12-27T21:48:48.233Z,6.10
2022-12-27T21:51:17.803Z,6.10
2022-12-27T21:53:45.554Z,6.20
2022-12-27T21:56:14.008Z,6.10
2022-12-27T21:58:41.475Z,6.10
2022-12-27T22:01:14.211Z,6.10
2022-12-27T22:03:43.784Z,6.10
2022-12-27T22:06:27.058Z,6.20
2022-12-27T22:08:56.763Z,6.20
2022-12-27T22:11:24.151Z,6.30
2022-12-27T22:13:51.136Z,6.20
2022-12-27T22:16:28.458Z,6.30
2022-12-27T22:18:56.083Z,6.30
2022-12-27T22:21:25.862Z,6.30
2022-12-27T22:23:54.052Z,6.30
2022-12-27T22:26:26.579Z,6.40
2022-12-27T22:28:53.472Z,6.30
2022-12-27T22:31:23.507Z,6.40
2022-12-27T22:33:51.102Z,6.50
2022-12-27T22:36:20.931Z,6.50
2022-12-27T22:38:50.113Z,6.40
2022-12-27T22:41:31.642Z,6.50
2022-12-27T22:44:07.317Z,6.60
2022-12-27T22:49:21.243Z,6.50
2022-12-27T22:51:47.888Z,6.50
2022-12-27T22:54:14.467Z,6.60
2022-12-27T22:56:42.293Z,6.60
2022-12-27T22:59:14.468Z,6.60
2022-12-27T23:01:42.770Z,6.60
2022-12-27T23:04:12.225Z,6.60
2022-12-27T23:06:39.699Z,6.60
2022-12-27T23:09:06.847Z,6.60
2022-12-27T23:11:37.627Z,6.60
2022-12-27T23:14:11.042Z,6.60
2022-12-27T23:16:39.517Z,6.60
2022-12-27T23:19:07.528Z,6.70
2022-12-27T23:21:34.431Z,6.80
2022-12-27T23:24:01.049Z,6.80
2022-12-27T23:26:27.916Z,6.80
2022-12-27T23:28:54.988Z,6.80
2022-12-27T23:31:23.385Z,6.80
2022-12-27T23:33:50.613Z,6.80
2022-12-27T23:36:18.313Z,6.80
2022-12-27T23:38:45.278Z,6.80
2022-12-27T23:41:20.368Z,6.80
2022-12-27T23:43:52.818Z,6.80
2022-12-27T23:46:24.144Z,6.90
2022-12-27T23:48:51.376Z,6.80
2022-12-27T23:51:18.559Z,6.90
2022-12-27T23:53:45.222Z,6.90
2022-12-27T23:56:16.258Z,6.90
2022-12-27T23:58:43.463Z,7.00
